Time;durP1;ratioP1;P1;durP2;ratioP2;P2;SDS_P1;SDS_P2;PMS_P1;PMS_P2;Temp;Humidity;BMP_temperature;BMP_pressure;BME280_temperature;BME280_humidity;BME280_pressure;Samples;Min_cycle;Max_cycle;Signal;HPM_P1;HPM_P2
2021/07/11 00:01:04;;;;;;;7.70;2.70;;;;;;;;;;6185081;23;20127;-61
2021/07/11 00:03:30;;;;;;;10.02;2.80;;;;;;;;;;6185057;23;20002;-61
2021/07/11 00:05:57;;;;;;;6.93;2.93;;;;;;;;;;6184953;23;20013;-61
2021/07/11 00:08:24;;;;;;;5.93;2.60;;;;;;;;;;6184900;23;20048;-61
2021/07/11 00:10:51;;;;;;;8.13;2.93;;;;;;;;;;6184976;23;20012;-61
2021/07/11 00:13:18;;;;;;;8.30;2.90;;;;;;;;;;6184886;23;20353;-61
2021/07/11 00:15:45;;;;;;;10.00;3.23;;;;;;;;;;6184867;23;20012;-61
2021/07/11 00:18:13;;;;;;;12.00;3.33;;;;;;;;;;6185099;23;20416;-61
2021/07/11 00:20:39;;;;;;;6.17;3.00;;;;;;;;;;6184949;23;20012;-61
2021/07/11 00:23:06;;;;;;;8.93;3.20;;;;;;;;;;6185058;23;20010;-61
2021/07/11 00:25:33;;;;;;;10.33;3.23;;;;;;;;;;6185292;23;20036;-61
2021/07/11 00:28:00;;;;;;;5.97;3.23;;;;;;;;;;6185029;23;20360;-61
2021/07/11 00:30:27;;;;;;;10.60;3.87;;;;;;;;;;6184882;23;20001;-61
2021/07/11 00:32:54;;;;;;;7.47;3.13;;;;;;;;;;6184847;23;20036;-61
2021/07/11 00:35:21;;;;;;;39.07;22.20;;;;;;;;;;6185074;22;20013;-61
2021/07/11 00:37:48;;;;;;;27.33;17.23;;;;;;;;;;6185097;23;20001;-61
2021/07/11 00:40:14;;;;;;;32.03;12.00;;;;;;;;;;6184951;23;20050;-61
2021/07/11 00:42:43;;;;;;;27.80;9.37;;;;;;;;;;6185280;23;20005;-61
2021/07/11 00:45:11;;;;;;;14.30;4.83;;;;;;;;;;6184978;23;20382;-61
2021/07/11 00:47:39;;;;;;;11.33;4.37;;;;;;;;;;6186779;23;20004;-61
2021/07/11 00:50:07;;;;;;;8.13;3.60;;;;;;;;;;6160356;23;20436;-61
2021/07/11 00:52:34;;;;;;;9.50;3.77;;;;;;;;;;6186527;23;20137;-61
2021/07/11 00:55:01;;;;;;;11.40;3.80;;;;;;;;;;6186856;23;20001;-61
2021/07/11 00:57:28;;;;;;;11.47;3.90;;;;;;;;;;6186490;23;20005;-61
2021/07/11 00:59:55;;;;;;;18.37;4.67;;;;;;;;;;6186725;23;20009;-61
2021/07/11 01:02:29;;;;;;;11.97;3.80;;;;;;;;;;6186555;23;20001;-61
2021/07/11 01:05:02;;;;;;;6.23;2.80;;;;;;;;;;6186602;23;20084;-61
2021/07/11 01:07:41;;;;;;;10.60;4.33;;;;;;;;;;6186553;23;20007;-61
2021/07/11 01:10:10;;;;;;;10.60;3.87;;;;;;;;;;6160038;23;20009;-60
2021/07/11 01:12:45;;;;;;;8.40;3.20;;;;;;;;;;6186486;23;20120;-60
2021/07/11 01:15:11;;;;;;;;;;;;;;;;;;6187044;23;20012;-60
2021/07/11 01:17:39;;;;;;;13.33;4.10;;;;;;;;;;6186460;23;19924;-60
2021/07/11 01:20:32;;;;;;;8.60;3.50;;;;;;;;;;6186555;23;20302;-61
2021/07/11 01:23:00;;;;;;;9.70;3.83;;;;;;;;;;6180282;23;20009;-60
2021/07/11 01:25:47;;;;;;;10.73;4.20;;;;;;;;;;6186384;23;20080;-61
2021/07/11 01:28:17;;;;;;;10.30;3.87;;;;;;;;;;6186397;23;20068;-60
2021/07/11 01:30:45;;;;;;;6.77;3.20;;;;;;;;;;6186486;23;19997;-60
2021/07/11 01:33:13;;;;;;;7.20;4.33;;;;;;;;;;6187177;23;20084;-61
2021/07/11 01:35:40;;;;;;;7.63;3.33;;;;;;;;;;6186315;23;20467;-61
2021/07/11 01:38:08;;;;;;;8.50;3.40;;;;;;;;;;6186261;23;20005;-60
2021/07/11 01:40:35;;;;;;;7.33;3.13;;;;;;;;;;6186397;23;20004;-60
2021/07/11 01:43:02;;;;;;;10.20;3.60;;;;;;;;;;6186043;23;20443;-61
2021/07/11 01:45:30;;;;;;;10.63;3.10;;;;;;;;;;6186179;23;20021;-60
2021/07/11 01:47:57;;;;;;;14.40;4.93;;;;;;;;;;6186149;23;20003;-60
2021/07/11 01:50:25;;;;;;;7.87;4.43;;;;;;;;;;6186514;23;20328;-61
2021/07/11 01:52:53;;;;;;;16.33;5.00;;;;;;;;;;6186045;23;19997;-60
2021/07/11 01:55:20;;;;;;;7.60;3.63;;;;;;;;;;6185951;23;20340;-60
2021/07/11 01:57:49;;;;;;;6.20;3.27;;;;;;;;;;6185734;23;20008;-60
2021/07/11 02:00:16;;;;;;;6.43;3.60;;;;;;;;;;6185891;23;20016;-60
2021/07/11 02:02:44;;;;;;;10.17;4.27;;;;;;;;;;6185952;23;19997;-60
2021/07/11 02:05:12;;;;;;;11.73;4.40;;;;;;;;;;6185970;23;20020;-60
2021/07/11 02:07:38;;;;;;;5.43;3.50;;;;;;;;;;6185887;23;20433;-60
2021/07/11 02:10:07;;;;;;;8.00;4.63;;;;;;;;;;6186030;23;20005;-60
2021/07/11 02:12:35;;;;;;;11.17;4.83;;;;;;;;;;6185690;23;20001;-60
2021/07/11 02:15:07;;;;;;;10.10;4.37;;;;;;;;;;6185903;23;20429;-60
2021/07/11 02:17:35;;;;;;;7.97;3.90;;;;;;;;;;6159805;23;20052;-60
2021/07/11 02:20:02;;;;;;;8.70;4.37;;;;;;;;;;6185927;23;20325;-60
2021/07/11 02:22:29;;;;;;;12.63;4.93;;;;;;;;;;6185800;23;20004;-60
2021/07/11 02:24:56;;;;;;;12.63;4.70;;;;;;;;;;6185670;23;20036;-60
2021/07/11 02:27:33;;;;;;;9.23;3.97;;;;;;;;;;6185841;23;20080;-60
2021/07/11 02:30:06;;;;;;;12.60;5.13;;;;;;;;;;6185986;23;20009;-60
2021/07/11 02:32:34;;;;;;;12.17;5.07;;;;;;;;;;6185832;23;20013;-60
2021/07/11 02:35:08;;;;;;;21.37;4.90;;;;;;;;;;6186511;22;20055;-60
2021/07/11 02:37:35;;;;;;;9.18;5.20;;;;;;;;;;6186103;23;20068;-60
2021/07/11 02:40:08;;;;;;;16.07;6.73;;;;;;;;;;6186069;23;20004;-60
2021/07/11 02:42:35;;;;;;;13.30;6.53;;;;;;;;;;6185919;23;20498;-60
2021/07/11 02:45:05;;;;;;;14.40;5.63;;;;;;;;;;6185820;23;20016;-60
2021/07/11 02:47:33;;;;;;;13.27;7.00;;;;;;;;;;6185601;23;20002;-60
2021/07/11 02:50:02;;;;;;;12.63;5.20;;;;;;;;;;6186059;23;20008;-60
2021/07/11 02:52:29;;;;;;;13.00;4.63;;;;;;;;;;6185614;23;20002;-60
2021/07/11 02:55:21;;;;;;;14.50;6.53;;;;;;;;;;6185854;23;20009;-60
2021/07/11 02:57:56;;;;;;;11.27;5.37;;;;;;;;;;6185972;23;19997;-60
2021/07/11 03:00:23;;;;;;;13.27;6.07;;;;;;;;;;6185592;23;20031;-60
2021/07/11 03:02:50;;;;;;;16.33;7.67;;;;;;;;;;6185619;23;20009;-60
2021/07/11 03:05:23;;;;;;;17.10;9.30;;;;;;;;;;6185504;23;20067;-60
2021/07/11 03:07:50;;;;;;;12.37;7.37;;;;;;;;;;6159470;23;20063;-60
2021/07/11 03:10:17;;;;;;;14.90;7.10;;;;;;;;;;6184957;23;20064;-60
2021/07/11 03:12:45;;;;;;;17.07;7.73;;;;;;;;;;6185330;23;20009;-60
2021/07/11 03:15:12;;;;;;;15.53;8.60;;;;;;;;;;6185493;23;20054;-60
2021/07/11 03:17:43;;;;;;;15.37;7.87;;;;;;;;;;6185749;23;20005;-60
2021/07/11 03:20:12;;;;;;;32.23;9.20;;;;;;;;;;6185297;23;20093;-60
2021/07/11 03:22:39;;;;;;;16.70;8.43;;;;;;;;;;6185401;23;20043;-60
2021/07/11 03:25:08;;;;;;;15.00;5.90;;;;;;;;;;6185454;23;20013;-60
2021/07/11 03:27:36;;;;;;;14.03;5.87;;;;;;;;;;6185593;23;19997;-60
2021/07/11 03:30:11;;;;;;;12.50;5.67;;;;;;;;;;6185550;23;20009;-60
2021/07/11 03:32:38;;;;;;;12.00;6.30;;;;;;;;;;6185604;23;20306;-60
2021/07/11 03:35:15;;;;;;;12.07;5.43;;;;;;;;;;6186194;22;20511;-60
2021/07/11 03:37:45;;;;;;;12.47;5.90;;;;;;;;;;6185852;23;20005;-60
2021/07/11 03:40:16;;;;;;;9.17;5.63;;;;;;;;;;6185418;23;20005;-60
2021/07/11 03:42:45;;;;;;;13.47;6.63;;;;;;;;;;6158931;23;20009;-60
2021/07/11 03:45:12;;;;;;;10.63;5.40;;;;;;;;;;6185416;23;20009;-60
2021/07/11 03:47:43;;;;;;;10.10;5.07;;;;;;;;;;6185165;23;20008;-60
2021/07/11 03:50:12;;;;;;;18.17;6.10;;;;;;;;;;6185457;23;20016;-60
2021/07/11 03:52:50;;;;;;;19.83;6.90;;;;;;;;;;6159585;23;20017;-60
2021/07/11 03:55:19;;;;;;;14.63;6.97;;;;;;;;;;6185177;23;20028;-60
2021/07/11 03:57:47;;;;;;;15.47;5.83;;;;;;;;;;6185367;23;20005;-60
2021/07/11 04:00:20;;;;;;;10.10;6.27;;;;;;;;;;6185416;23;20337;-60
2021/07/11 04:02:50;;;;;;;11.33;6.90;;;;;;;;;;6185052;23;20008;-60
2021/07/11 04:05:24;;;;;;;14.43;7.57;;;;;;;;;;6185033;23;20013;-60
2021/07/11 04:07:52;;;;;;;13.35;6.93;;;;;;;;;;6185329;23;20076;-60
2021/07/11 04:10:25;;;;;;;13.87;6.93;;;;;;;;;;6158431;23;20147;-60
2021/07/11 04:12:53;;;;;;;13.23;5.87;;;;;;;;;;6185160;23;20084;-60
2021/07/11 04:15:32;;;;;;;11.83;6.00;;;;;;;;;;6185363;23;20009;-60
2021/07/11 04:18:06;;;;;;;20.60;7.20;;;;;;;;;;6185168;23;20024;-60
2021/07/11 04:20:37;;;;;;;17.25;6.20;;;;;;;;;;6185390;23;20036;-60
2021/07/11 04:23:05;;;;;;;17.13;5.70;;;;;;;;;;6187107;23;20439;-60
2021/07/11 04:25:33;;;;;;;10.30;5.10;;;;;;;;;;6186827;23;20017;-60
2021/07/11 04:28:01;;;;;;;12.17;5.90;;;;;;;;;;6187017;23;20001;-60
2021/07/11 04:30:28;;;;;;;15.17;7.13;;;;;;;;;;6187149;23;20436;-60
2021/07/11 04:32:59;;;;;;;13.37;5.90;;;;;;;;;;6187337;23;20009;-60
2021/07/11 04:35:26;;;;;;;14.80;6.80;;;;;;;;;;6187643;22;20024;-60
2021/07/11 04:37:52;;;;;;;16.03;7.50;;;;;;;;;;6187296;23;20009;-60
2021/07/11 04:40:19;;;;;;;13.43;6.57;;;;;;;;;;6187369;23;20076;-60
2021/07/11 04:42:49;;;;;;;10.77;5.73;;;;;;;;;;6186998;23;20064;-60
2021/07/11 04:45:20;;;;;;;15.30;7.70;;;;;;;;;;6186967;23;20009;-60
2021/07/11 04:47:48;;;;;;;13.27;7.10;;;;;;;;;;6186685;23;20068;-60
2021/07/11 04:50:15;;;;;;;13.53;7.20;;;;;;;;;;6187172;23;20060;-60
2021/07/11 04:52:48;;;;;;;15.23;7.37;;;;;;;;;;6161148;23;20002;-60
2021/07/11 04:55:17;;;;;;;18.87;7.83;;;;;;;;;;6160555;23;20005;-60
2021/07/11 04:57:48;;;;;;;25.27;8.67;;;;;;;;;;6186114;23;20055;-60
2021/07/11 05:00:16;;;;;;;15.57;7.53;;;;;;;;;;6186947;23;20001;-60
2021/07/11 05:02:45;;;;;;;14.93;7.37;;;;;;;;;;6186884;23;20016;-60
2021/07/11 05:05:12;;;;;;;17.43;7.77;;;;;;;;;;6186051;23;20040;-60
2021/07/11 05:07:39;;;;;;;9.13;6.13;;;;;;;;;;6186649;23;20063;-60
2021/07/11 05:10:06;;;;;;;10.77;6.40;;;;;;;;;;6186041;23;20009;-59
2021/07/11 05:12:33;;;;;;;16.33;9.03;;;;;;;;;;6186409;23;20001;-60
2021/07/11 05:15:00;;;;;;;16.47;7.90;;;;;;;;;;6186268;23;20005;-60
2021/07/11 05:17:27;;;;;;;14.93;7.43;;;;;;;;;;6186447;23;20525;-60
2021/07/11 05:19:54;;;;;;;16.73;8.53;;;;;;;;;;6186319;23;20332;-60
2021/07/11 05:22:20;;;;;;;13.77;7.27;;;;;;;;;;6186316;23;20436;-60
2021/07/11 05:24:47;;;;;;;15.87;7.83;;;;;;;;;;6186146;23;20055;-60
2021/07/11 05:27:14;;;;;;;16.53;8.33;;;;;;;;;;6187127;23;20001;-60
2021/07/11 05:29:41;;;;;;;17.03;7.73;;;;;;;;;;6186418;23;20004;-60
2021/07/11 05:32:08;;;;;;;16.03;8.03;;;;;;;;;;6185913;23;20001;-60
2021/07/11 05:34:35;;;;;;;20.97;7.87;;;;;;;;;;6186845;23;20048;-60
2021/07/11 05:37:02;;;;;;;12.40;6.97;;;;;;;;;;6186362;23;20083;-59
2021/07/11 05:39:28;;;;;;;17.03;8.23;;;;;;;;;;6186298;23;20001;-60
2021/07/11 05:41:55;;;;;;;15.03;7.80;;;;;;;;;;6186336;23;20044;-60
2021/07/11 05:44:22;;;;;;;11.37;6.63;;;;;;;;;;6186018;23;20012;-60
2021/07/11 05:46:49;;;;;;;23.57;9.83;;;;;;;;;;6186258;23;19997;-60
2021/07/11 05:49:16;;;;;;;18.73;7.83;;;;;;;;;;6186017;23;20092;-60
2021/07/11 05:51:42;;;;;;;12.80;7.60;;;;;;;;;;6186047;23;20019;-59
2021/07/11 05:54:09;;;;;;;18.13;8.83;;;;;;;;;;6186275;23;20005;-59
2021/07/11 05:56:36;;;;;;;16.63;7.57;;;;;;;;;;6185978;23;20001;-60
2021/07/11 05:59:03;;;;;;;12.87;8.40;;;;;;;;;;6186157;23;20076;-60
2021/07/11 06:01:29;;;;;;;18.40;8.97;;;;;;;;;;6186039;23;20005;-59
2021/07/11 06:03:56;;;;;;;20.33;6.67;;;;;;;;;;6185990;23;20368;-60
2021/07/11 06:06:23;;;;;;;13.10;7.20;;;;;;;;;;6159949;23;20016;-59
2021/07/11 06:08:50;;;;;;;25.87;8.13;;;;;;;;;;6185750;23;20016;-59
2021/07/11 06:11:17;;;;;;;15.20;9.30;;;;;;;;;;6185829;23;20421;-59
2021/07/11 06:13:44;;;;;;;17.63;7.60;;;;;;;;;;6186003;23;20436;-60
2021/07/11 06:16:10;;;;;;;20.37;7.30;;;;;;;;;;6185987;23;20040;-59
2021/07/11 06:18:37;;;;;;;18.43;8.53;;;;;;;;;;6185973;23;20008;-60
2021/07/11 06:21:04;;;;;;;15.10;7.80;;;;;;;;;;6185774;23;20028;-60
2021/07/11 06:23:31;;;;;;;25.13;9.10;;;;;;;;;;6185820;23;20328;-60
2021/07/11 06:25:58;;;;;;;17.67;9.00;;;;;;;;;;6185905;23;20082;-60
2021/07/11 06:28:24;;;;;;;11.40;8.10;;;;;;;;;;6185928;23;20020;-60
2021/07/11 06:30:53;;;;;;;15.57;7.50;;;;;;;;;;6185756;23;20076;-60
2021/07/11 06:33:20;;;;;;;18.87;8.60;;;;;;;;;;6185710;23;20340;-60
2021/07/11 06:35:47;;;;;;;16.37;7.90;;;;;;;;;;6186699;23;20017;-60
2021/07/11 06:38:14;;;;;;;16.87;10.10;;;;;;;;;;6185749;23;20388;-60
2021/07/11 06:40:41;;;;;;;19.57;9.00;;;;;;;;;;6185541;23;20009;-60
2021/07/11 06:43:07;;;;;;;16.70;8.50;;;;;;;;;;6185639;23;20001;-60
2021/07/11 06:45:34;;;;;;;20.10;8.47;;;;;;;;;;6185476;23;20143;-60
2021/07/11 06:48:01;;;;;;;15.40;8.20;;;;;;;;;;6185683;23;19997;-60
2021/07/11 06:50:28;;;;;;;15.77;8.37;;;;;;;;;;6185444;23;20031;-60
2021/07/11 06:52:54;;;;;;;14.90;8.67;;;;;;;;;;6185793;23;20176;-60
2021/07/11 06:55:21;;;;;;;12.37;8.00;;;;;;;;;;6185526;23;20080;-60
2021/07/11 06:57:48;;;;;;;13.83;7.97;;;;;;;;;;6185544;23;20055;-60
2021/07/11 07:00:15;;;;;;;13.07;7.57;;;;;;;;;;6185383;23;20016;-60
2021/07/11 07:02:42;;;;;;;15.23;9.33;;;;;;;;;;6185751;23;20325;-60
2021/07/11 07:05:10;;;;;;;17.53;7.77;;;;;;;;;;6185532;23;20020;-60
2021/07/11 07:07:38;;;;;;;16.53;8.37;;;;;;;;;;6185430;23;19997;-60
2021/07/11 07:10:07;;;;;;;15.10;8.57;;;;;;;;;;6185260;23;20324;-60
2021/07/11 07:12:34;;;;;;;13.77;8.23;;;;;;;;;;6185196;23;19997;-60
2021/07/11 07:15:01;;;;;;;14.53;7.87;;;;;;;;;;6185431;23;20031;-60
2021/07/11 07:17:28;;;;;;;14.00;8.03;;;;;;;;;;6185408;23;20051;-60
2021/07/11 07:19:54;;;;;;;13.83;9.13;;;;;;;;;;6185314;23;20008;-60
2021/07/11 07:22:21;;;;;;;16.03;8.97;;;;;;;;;;6185240;23;20007;-60
2021/07/11 07:24:48;;;;;;;17.70;9.07;;;;;;;;;;6185281;23;20076;-60
2021/07/11 07:27:15;;;;;;;21.23;9.67;;;;;;;;;;6185203;23;20015;-60
2021/07/11 07:29:42;;;;;;;15.70;7.47;;;;;;;;;;6185335;23;20029;-60
2021/07/11 07:32:08;;;;;;;16.23;8.63;;;;;;;;;;6185273;23;20001;-60
2021/07/11 07:34:35;;;;;;;22.17;7.43;;;;;;;;;;6185972;23;20021;-60
2021/07/11 07:37:02;;;;;;;15.77;7.13;;;;;;;;;;6185125;23;20001;-60
2021/07/11 07:39:30;;;;;;;14.13;7.77;;;;;;;;;;6185159;23;20013;-60
2021/07/11 07:41:56;;;;;;;17.90;8.30;;;;;;;;;;6185277;23;20001;-60
2021/07/11 07:44:23;;;;;;;14.43;6.77;;;;;;;;;;6185112;23;20429;-60
2021/07/11 07:46:50;;;;;;;11.93;6.53;;;;;;;;;;6185268;23;20071;-60
2021/07/11 07:49:17;;;;;;;12.93;7.47;;;;;;;;;;6185120;23;20329;-60
2021/07/11 07:51:44;;;;;;;14.63;6.67;;;;;;;;;;6185159;23;20005;-60
2021/07/11 07:54:24;;;;;;;13.47;7.53;;;;;;;;;;6185112;23;20320;-59
2021/07/11 07:56:50;;;;;;;22.63;6.50;;;;;;;;;;6186759;23;20009;-60
2021/07/11 07:59:17;;;;;;;11.50;6.93;;;;;;;;;;6187267;23;20444;-59
2021/07/11 08:01:44;;;;;;;13.40;7.17;;;;;;;;;;6187016;23;19997;-59
2021/07/11 08:04:11;;;;;;;17.13;6.47;;;;;;;;;;6187084;23;20032;-59
2021/07/11 08:06:38;;;;;;;18.27;8.00;;;;;;;;;;6187005;23;20035;-59
2021/07/11 08:09:05;;;;;;;14.73;8.20;;;;;;;;;;6187473;23;20001;-59
2021/07/11 08:11:32;;;;;;;13.90;7.27;;;;;;;;;;6186927;23;20012;-59
2021/07/11 08:13:59;;;;;;;19.90;9.10;;;;;;;;;;6187260;23;20008;-59
2021/07/11 08:16:25;;;;;;;22.67;8.00;;;;;;;;;;6187213;23;20248;-59
2021/07/11 08:18:52;;;;;;;16.37;8.37;;;;;;;;;;6187056;23;20001;-59
2021/07/11 08:21:20;;;;;;;17.13;8.00;;;;;;;;;;6186934;23;20420;-59
2021/07/11 08:23:46;;;;;;;16.60;7.93;;;;;;;;;;6160559;23;20009;-59
2021/07/11 08:26:13;;;;;;;17.40;9.73;;;;;;;;;;6186962;23;20016;-59
2021/07/11 08:28:40;;;;;;;17.33;9.60;;;;;;;;;;6186964;23;20084;-59
2021/07/11 08:31:07;;;;;;;17.23;8.33;;;;;;;;;;6186875;23;20001;-59
2021/07/11 08:33:33;;;;;;;15.47;9.13;;;;;;;;;;6186900;23;20005;-60
2021/07/11 08:36:00;;;;;;;14.93;7.40;;;;;;;;;;6187674;22;20456;-59
2021/07/11 08:38:27;;;;;;;16.43;8.07;;;;;;;;;;6186939;23;20063;-59
2021/07/11 08:40:54;;;;;;;13.97;7.23;;;;;;;;;;6186857;23;20009;-59
2021/07/11 08:43:21;;;;;;;11.63;7.13;;;;;;;;;;6186655;23;20385;-59
2021/07/11 08:45:48;;;;;;;18.57;6.90;;;;;;;;;;6186769;23;20013;-59
2021/07/11 08:48:15;;;;;;;14.63;8.23;;;;;;;;;;6186775;23;19997;-59
2021/07/11 08:50:42;;;;;;;17.53;8.63;;;;;;;;;;6186593;23;20027;-59
2021/07/11 08:53:17;;;;;;;19.37;8.63;;;;;;;;;;6186623;23;20302;-59
2021/07/11 08:55:44;;;;;;;16.73;9.13;;;;;;;;;;6186733;23;20056;-59
2021/07/11 08:58:14;;;;;;;14.17;8.33;;;;;;;;;;6186742;23;20004;-59
2021/07/11 09:00:41;;;;;;;16.27;7.77;;;;;;;;;;6186815;23;20371;-59
2021/07/11 09:03:08;;;;;;;14.33;7.30;;;;;;;;;;6186686;23;20001;-59
2021/07/11 09:05:39;;;;;;;15.13;8.03;;;;;;;;;;6186356;23;20019;-59
2021/07/11 09:08:13;;;;;;;15.63;7.53;;;;;;;;;;6185745;23;20329;-59
2021/07/11 09:10:42;;;;;;;10.88;7.15;;;;;;;;;;6186372;23;20132;-59
2021/07/11 09:13:13;;;;;;;21.03;7.87;;;;;;;;;;6186519;23;19997;-59
2021/07/11 09:15:42;;;;;;;13.63;7.20;;;;;;;;;;6186401;23;20013;-59
2021/07/11 09:18:09;;;;;;;15.07;7.53;;;;;;;;;;6186404;23;20068;-59
2021/07/11 09:20:52;;;;;;;19.83;9.50;;;;;;;;;;6186420;23;20068;-59
2021/07/11 09:23:19;;;;;;;15.97;7.50;;;;;;;;;;6186506;23;20008;-59
2021/07/11 09:25:56;;;;;;;14.33;7.63;;;;;;;;;;6186217;23;20013;-59
2021/07/11 09:28:23;;;;;;;12.00;7.27;;;;;;;;;;6186458;23;20429;-59
2021/07/11 09:31:10;;;;;;;13.90;7.27;;;;;;;;;;6186379;23;20106;-59
2021/07/11 09:33:38;;;;;;;11.53;6.77;;;;;;;;;;6161980;23;20311;-59
2021/07/11 09:36:05;;;;;;;11.83;7.27;;;;;;;;;;6187095;23;20027;-59
2021/07/11 09:38:32;;;;;;;14.93;7.77;;;;;;;;;;6186330;23;20002;-59
2021/07/11 09:41:02;;;;;;;20.33;8.30;;;;;;;;;;6186039;23;20090;-59
2021/07/11 09:43:38;;;;;;;17.57;8.23;;;;;;;;;;6186311;23;20034;-59
2021/07/11 09:46:11;;;;;;;16.17;8.13;;;;;;;;;;6186109;23;20322;-59
2021/07/11 09:48:38;;;;;;;13.27;8.47;;;;;;;;;;6186067;23;20005;-59
2021/07/11 09:51:17;;;;;;;14.67;7.00;;;;;;;;;;6186180;23;20009;-59
2021/07/11 09:53:44;;;;;;;13.63;7.30;;;;;;;;;;6186133;23;20012;-59
2021/07/11 09:56:17;;;;;;;17.57;8.87;;;;;;;;;;6186018;23;20035;-59
2021/07/11 09:58:54;;;;;;;15.97;7.90;;;;;;;;;;6186165;23;19998;-59
2021/07/11 10:01:21;;;;;;;14.53;8.00;;;;;;;;;;6186105;23;20328;-59
2021/07/11 10:03:48;;;;;;;14.60;7.43;;;;;;;;;;6186189;23;20059;-59
2021/07/11 10:06:15;;;;;;;17.10;9.30;;;;;;;;;;6185865;23;20013;-59
2021/07/11 10:08:43;;;;;;;18.43;9.23;;;;;;;;;;6186110;23;20005;-59
2021/07/11 10:11:09;;;;;;;14.73;7.53;;;;;;;;;;6186092;23;20005;-59
2021/07/11 10:13:36;;;;;;;19.87;7.00;;;;;;;;;;6185974;23;19997;-59
2021/07/11 10:16:03;;;;;;;18.30;7.43;;;;;;;;;;6160072;23;20020;-59
2021/07/11 10:18:31;;;;;;;17.80;6.20;;;;;;;;;;6185700;23;20469;-59
2021/07/11 10:20:58;;;;;;;13.27;6.77;;;;;;;;;;6185807;23;20001;-59
2021/07/11 10:23:26;;;;;;;17.73;7.60;;;;;;;;;;6185937;23;20119;-59
2021/07/11 10:26:01;;;;;;;15.30;7.63;;;;;;;;;;6185877;23;20016;-59
2021/07/11 10:28:30;;;;;;;11.02;6.30;;;;;;;;;;6185905;23;20008;-59
2021/07/11 10:30:57;;;;;;;17.47;5.93;;;;;;;;;;6186176;23;20005;-59
2021/07/11 10:33:24;;;;;;;15.50;6.13;;;;;;;;;;6185685;23;20005;-59
2021/07/11 10:36:03;;;;;;;13.87;6.00;;;;;;;;;;6186614;22;20021;-59
2021/07/11 10:38:39;;;;;;;11.70;6.13;;;;;;;;;;6185797;23;20032;-59
2021/07/11 10:41:28;;;;;;;19.33;6.40;;;;;;;;;;6185644;23;20005;-59
2021/07/11 10:44:05;;;;;;;14.30;7.20;;;;;;;;;;6167323;23;20076;-59
2021/07/11 10:46:32;;;;;;;18.07;6.30;;;;;;;;;;6185588;23;20013;-59
2021/07/11 10:49:17;;;;;;;15.83;6.37;;;;;;;;;;6186433;23;20008;-59
2021/07/11 10:51:44;;;;;;;23.58;7.25;;;;;;;;;;6185629;23;20012;-59
2021/07/11 10:54:20;;;;;;;17.00;5.53;;;;;;;;;;6185558;23;20080;-59
2021/07/11 10:56:47;;;;;;;18.63;5.27;;;;;;;;;;6185589;23;20001;-59
2021/07/11 10:59:34;;;;;;;13.87;4.60;;;;;;;;;;6185676;23;20072;-59
2021/07/11 11:02:03;;;;;;;22.60;4.90;;;;;;;;;;6185421;23;20425;-59
2021/07/11 11:04:30;;;;;;;19.90;5.07;;;;;;;;;;6185464;23;20005;-59
2021/07/11 11:06:57;;;;;;;16.87;5.67;;;;;;;;;;6185521;23;20012;-59
2021/07/11 11:09:40;;;;;;;15.20;5.73;;;;;;;;;;6185495;23;20001;-59
2021/07/11 11:12:20;;;;;;;16.63;4.33;;;;;;;;;;6185492;23;20008;-59
2021/07/11 11:14:59;;;;;;;23.03;5.50;;;;;;;;;;6185332;23;20429;-59
2021/07/11 11:17:28;;;;;;;15.17;5.43;;;;;;;;;;6185503;23;20016;-59
2021/07/11 11:19:55;;;;;;;12.53;4.17;;;;;;;;;;6185255;23;20104;-59
2021/07/11 11:22:22;;;;;;;16.07;4.47;;;;;;;;;;6185456;23;20072;-59
2021/07/11 11:24:49;;;;;;;16.30;4.20;;;;;;;;;;6185215;23;20076;-59
2021/07/11 11:27:16;;;;;;;17.73;4.57;;;;;;;;;;6185256;23;20005;-59
2021/07/11 11:29:42;;;;;;;17.67;6.10;;;;;;;;;;6185130;23;20002;-59
2021/07/11 11:32:11;;;;;;;17.90;4.40;;;;;;;;;;6185173;23;20310;-59
2021/07/11 11:34:38;;;;;;;16.20;5.43;;;;;;;;;;6185874;23;20325;-59
2021/07/11 11:37:05;;;;;;;19.60;4.77;;;;;;;;;;6185159;23;20437;-59
2021/07/11 11:39:36;;;;;;;15.87;5.33;;;;;;;;;;6185248;23;20005;-59
2021/07/11 11:42:04;;;;;;;18.10;4.27;;;;;;;;;;6185009;23;20008;-59
2021/07/11 11:44:31;;;;;;;14.43;4.10;;;;;;;;;;6185136;23;20072;-59
2021/07/11 11:46:59;;;;;;;17.33;4.80;;;;;;;;;;6185307;23;20084;-59
2021/07/11 11:49:27;;;;;;;17.03;4.30;;;;;;;;;;6185093;23;20069;-59
2021/07/11 11:51:58;;;;;;;17.43;4.90;;;;;;;;;;6185258;23;20012;-59
2021/07/11 11:54:38;;;;;;;17.47;5.10;;;;;;;;;;6185210;23;20004;-59
2021/07/11 11:57:08;;;;;;;12.37;4.07;;;;;;;;;;6185205;23;20005;-59
2021/07/11 11:59:36;;;;;;;16.67;4.83;;;;;;;;;;6185428;23;20007;-59
2021/07/11 12:02:04;;;;;;;20.07;4.77;;;;;;;;;;6185324;23;20008;-59
2021/07/11 12:04:31;;;;;;;15.97;5.60;;;;;;;;;;6185161;23;20005;-59
2021/07/11 12:06:59;;;;;;;15.80;4.43;;;;;;;;;;6185088;23;20005;-59
2021/07/11 12:09:30;;;;;;;17.73;5.17;;;;;;;;;;6185005;23;20076;-59
2021/07/11 12:11:58;;;;;;;20.00;5.00;;;;;;;;;;6185318;23;20001;-59
2021/07/11 12:14:25;;;;;;;17.93;5.57;;;;;;;;;;6185017;23;20021;-59
2021/07/11 12:16:59;;;;;;;12.73;4.83;;;;;;;;;;6185103;23;20076;-59
2021/07/11 12:19:26;;;;;;;12.40;5.17;;;;;;;;;;6185099;23;20093;-59
2021/07/11 12:21:54;;;;;;;13.30;5.23;;;;;;;;;;6184982;23;20016;-59
2021/07/11 12:24:23;;;;;;;17.00;6.47;;;;;;;;;;6185143;23;20076;-59
2021/07/11 12:26:54;;;;;;;18.40;5.30;;;;;;;;;;6184961;23;20009;-59
2021/07/11 12:29:29;;;;;;;14.03;5.33;;;;;;;;;;6185093;23;20005;-59
2021/07/11 12:32:03;;;;;;;14.70;4.82;;;;;;;;;;6184926;23;20009;-59
2021/07/11 12:34:30;;;;;;;17.90;5.32;;;;;;;;;;6185602;22;20464;-59
2021/07/11 12:37:00;;;;;;;17.10;5.33;;;;;;;;;;6184855;23;20012;-59
2021/07/11 12:39:27;;;;;;;18.23;5.47;;;;;;;;;;6184810;23;20005;-59
2021/07/11 12:41:54;;;;;;;17.43;5.37;;;;;;;;;;6185639;23;20063;-59
2021/07/11 12:44:39;;;;;;;10.60;5.10;;;;;;;;;;6186778;23;20025;-59
2021/07/11 12:47:07;;;;;;;18.92;5.28;;;;;;;;;;6186689;23;20013;-59
2021/07/11 12:49:34;;;;;;;19.10;6.40;;;;;;;;;;6186637;23;20059;-59
2021/07/11 12:52:07;;;;;;;20.13;7.07;;;;;;;;;;6187516;23;20068;-59
2021/07/11 12:54:34;;;;;;;18.50;5.93;;;;;;;;;;6186694;23;20132;-59
2021/07/11 12:57:03;;;;;;;15.70;5.63;;;;;;;;;;6186610;23;20008;-59
2021/07/11 12:59:36;;;;;;;16.63;6.37;;;;;;;;;;6186541;23;20029;-59
2021/07/11 13:02:04;;;;;;;20.50;6.70;;;;;;;;;;6186555;23;20001;-59
2021/07/11 13:04:31;;;;;;;25.90;6.37;;;;;;;;;;6186843;23;20005;-59
2021/07/11 13:07:02;;;;;;;16.40;6.10;;;;;;;;;;6186458;23;20085;-59
2021/07/11 13:09:29;;;;;;;24.47;6.20;;;;;;;;;;6186703;23;20382;-59
2021/07/11 13:11:56;;;;;;;27.40;6.87;;;;;;;;;;6186610;23;20005;-59
2021/07/11 13:14:23;;;;;;;20.03;6.77;;;;;;;;;;6186639;23;20008;-59
2021/07/11 13:16:50;;;;;;;28.80;7.77;;;;;;;;;;6186372;23;20012;-59
2021/07/11 13:19:17;;;;;;;29.00;7.63;;;;;;;;;;6186715;23;20005;-59
2021/07/11 13:21:45;;;;;;;21.07;7.70;;;;;;;;;;6186822;23;20002;-59
2021/07/11 13:24:12;;;;;;;19.40;5.77;;;;;;;;;;6186665;23;20016;-59
2021/07/11 13:26:39;;;;;;;20.60;6.13;;;;;;;;;;6186412;23;20452;-59
2021/07/11 13:29:06;;;;;;;18.50;5.70;;;;;;;;;;6186223;23;20059;-59
2021/07/11 13:31:33;;;;;;;18.50;6.10;;;;;;;;;;6159961;23;20016;-59
2021/07/11 13:34:01;;;;;;;27.63;6.90;;;;;;;;;;6186701;23;20005;-59
2021/07/11 13:36:30;;;;;;;25.23;8.03;;;;;;;;;;6187185;22;20021;-59
2021/07/11 13:38:57;;;;;;;26.37;7.93;;;;;;;;;;6186262;23;20044;-59
2021/07/11 13:41:25;;;;;;;23.37;7.73;;;;;;;;;;6186737;23;20006;-59
2021/07/11 13:44:01;;;;;;;20.77;6.27;;;;;;;;;;6186626;23;20001;-59
2021/07/11 13:46:30;;;;;;;25.07;6.10;;;;;;;;;;6186439;23;20066;-59
2021/07/11 13:48:59;;;;;;;21.87;6.27;;;;;;;;;;6186501;23;20005;-59
2021/07/11 13:51:28;;;;;;;14.57;6.00;;;;;;;;;;6186123;23;20028;-60
2021/07/11 13:53:56;;;;;;;21.97;5.83;;;;;;;;;;6186095;23;20005;-60
2021/07/11 13:56:23;;;;;;;19.03;6.13;;;;;;;;;;6160130;23;20005;-60
2021/07/11 13:58:50;;;;;;;24.17;6.17;;;;;;;;;;6159934;23;20005;-60
2021/07/11 14:01:17;;;;;;;17.93;5.40;;;;;;;;;;6186133;23;20039;-60
2021/07/11 14:03:43;;;;;;;16.00;5.20;;;;;;;;;;6186112;23;20001;-60
2021/07/11 14:06:11;;;;;;;19.73;5.37;;;;;;;;;;6186456;23;20112;-60
2021/07/11 14:08:41;;;;;;;22.87;5.60;;;;;;;;;;6184008;23;20005;-60
2021/07/11 14:11:09;;;;;;;15.70;5.50;;;;;;;;;;6186209;23;20001;-60
2021/07/11 14:13:39;;;;;;;27.63;5.47;;;;;;;;;;6186023;23;20009;-60
2021/07/11 14:16:06;;;;;;;26.60;5.33;;;;;;;;;;6186272;23;20421;-60
2021/07/11 14:18:33;;;;;;;24.30;5.53;;;;;;;;;;6186211;23;20005;-60
2021/07/11 14:21:00;;;;;;;30.73;5.60;;;;;;;;;;6185885;23;20007;-60
2021/07/11 14:23:28;;;;;;;31.33;5.53;;;;;;;;;;6185904;23;20013;-60
2021/07/11 14:25:56;;;;;;;26.87;5.17;;;;;;;;;;6186087;23;20087;-60
2021/07/11 14:28:25;;;;;;;24.93;5.47;;;;;;;;;;6184091;23;20005;-60
2021/07/11 14:30:53;;;;;;;23.27;5.57;;;;;;;;;;6185725;23;20009;-60
2021/07/11 14:33:20;;;;;;;19.93;6.00;;;;;;;;;;6186035;23;20025;-61
2021/07/11 14:35:54;;;;;;;28.10;6.07;;;;;;;;;;6187326;22;20024;-60
2021/07/11 14:38:21;;;;;;;23.70;5.83;;;;;;;;;;6184767;23;20017;-60
2021/07/11 14:40:48;;;;;;;21.60;6.20;;;;;;;;;;6185924;23;20124;-61